MAY weather

8 de Mayo Airstrip
Hermosillo, Sonora, Mexico

Public forecast

Using degrees Celsius for public forecast. Weather courtesy of forecast.io.

Closest aviation weather report (METAR) to 8 de Mayo Airstrip

Closest report is General Ignacio P. Garcia International Airport, 19.5 nm (36.1 km) ENE. Retrieved 2020/07/07 02:40 UTC (53 minutes ago):

MMHO 070240Z 22013KT 10SM FEW100 SCT200 36/19 A2977 RMK SLP071 52008 952 8/038 CBS 1 QUAD HZY

Closest aviation forecast (TAF) to 8 de Mayo Airstrip

Forecast is more than 6 hours old.

Closest forecast is General Ignacio P. Garcia International Airport, 19.5 nm (36.1 km) ENE. Retrieved 2020/07/06 18:40 UTC (9 hours ago):

TAF MMHO 061634Z 0618/0718 14005KT P6SM SCT080 FM062100 23015KT P6SM SCT040 FM070000 14012KT P6SM SCT030CB BKN100 PROB40 0701/0705 3SM TSRA OVC020CB FM070600 00000KT P6SM BKN100